sensor_id;sensor_type;location;lat;lon;timestamp;P1;durP1;ratioP1;P2;durP2;ratioP2
53453;SDS011;49404;50.472;6.954;2022-08-03T00:01:36;1.33;;;1.00;;
53453;SDS011;49404;50.472;6.954;2022-08-03T00:04:05;3.13;;;1.20;;
53453;SDS011;49404;50.472;6.954;2022-08-03T00:06:32;1.95;;;0.90;;
53453;SDS011;49404;50.472;6.954;2022-08-03T00:09:00;2.80;;;1.10;;
53453;SDS011;49404;50.472;6.954;2022-08-03T00:11:32;1.80;;;1.17;;
53453;SDS011;49404;50.472;6.954;2022-08-03T00:13:58;3.10;;;1.20;;
53453;SDS011;49404;50.472;6.954;2022-08-03T00:16:28;1.33;;;1.10;;
53453;SDS011;49404;50.472;6.954;2022-08-03T00:18:54;2.50;;;1.15;;
53453;SDS011;49404;50.472;6.954;2022-08-03T00:21:19;1.25;;;1.10;;
53453;SDS011;49404;50.472;6.954;2022-08-03T00:23:52;1.27;;;1.17;;
53453;SDS011;49404;50.472;6.954;2022-08-03T00:26:21;1.70;;;1.10;;
53453;SDS011;49404;50.472;6.954;2022-08-03T00:28:47;2.05;;;1.10;;
53453;SDS011;49404;50.472;6.954;2022-08-03T00:31:13;2.75;;;1.30;;
53453;SDS011;49404;50.472;6.954;2022-08-03T00:33:44;1.50;;;1.10;;
53453;SDS011;49404;50.472;6.954;2022-08-03T00:36:09;2.22;;;1.02;;
53453;SDS011;49404;50.472;6.954;2022-08-03T00:38:43;3.70;;;1.20;;
53453;SDS011;49404;50.472;6.954;2022-08-03T00:41:09;2.20;;;1.10;;
53453;SDS011;49404;50.472;6.954;2022-08-03T00:43:34;2.30;;;1.17;;
53453;SDS011;49404;50.472;6.954;2022-08-03T00:46:00;1.35;;;1.20;;
53453;SDS011;49404;50.472;6.954;2022-08-03T00:48:30;1.30;;;1.10;;
53453;SDS011;49404;50.472;6.954;2022-08-03T00:50:56;1.35;;;1.00;;
53453;SDS011;49404;50.472;6.954;2022-08-03T00:53:22;1.20;;;1.10;;
53453;SDS011;49404;50.472;6.954;2022-08-03T00:55:57;1.65;;;1.17;;
53453;SDS011;49404;50.472;6.954;2022-08-03T00:58:31;1.45;;;1.10;;
53453;SDS011;49404;50.472;6.954;2022-08-03T01:00:56;2.40;;;1.10;;
53453;SDS011;49404;50.472;6.954;2022-08-03T01:03:24;1.20;;;1.08;;
53453;SDS011;49404;50.472;6.954;2022-08-03T01:06:00;2.25;;;1.00;;
53453;SDS011;49404;50.472;6.954;2022-08-03T01:08:58;1.95;;;1.20;;
53453;SDS011;49404;50.472;6.954;2022-08-03T01:14:21;1.15;;;1.05;;
53453;SDS011;49404;50.472;6.954;2022-08-03T01:20:12;1.85;;;1.10;;
53453;SDS011;49404;50.472;6.954;2022-08-03T01:30:48;2.38;;;1.10;;
53453;SDS011;49404;50.472;6.954;2022-08-03T01:33:21;3.70;;;1.10;;
53453;SDS011;49404;50.472;6.954;2022-08-03T01:38:26;1.85;;;1.20;;
53453;SDS011;49404;50.472;6.954;2022-08-03T01:41:06;2.05;;;1.10;;
53453;SDS011;49404;50.472;6.954;2022-08-03T01:43:38;1.80;;;1.20;;
53453;SDS011;49404;50.472;6.954;2022-08-03T01:46:09;1.50;;;1.15;;
53453;SDS011;49404;50.472;6.954;2022-08-03T01:48:37;1.38;;;1.10;;
53453;SDS011;49404;50.472;6.954;2022-08-03T01:51:08;2.40;;;1.00;;
53453;SDS011;49404;50.472;6.954;2022-08-03T01:53:34;1.40;;;1.02;;
53453;SDS011;49404;50.472;6.954;2022-08-03T01:56:02;1.73;;;1.25;;
53453;SDS011;49404;50.472;6.954;2022-08-03T01:58:32;2.15;;;1.20;;
53453;SDS011;49404;50.472;6.954;2022-08-03T02:01:01;1.60;;;1.00;;
53453;SDS011;49404;50.472;6.954;2022-08-03T02:03:37;1.25;;;1.00;;
53453;SDS011;49404;50.472;6.954;2022-08-03T02:06:10;1.60;;;1.02;;
53453;SDS011;49404;50.472;6.954;2022-08-03T02:08:42;2.30;;;1.08;;
53453;SDS011;49404;50.472;6.954;2022-08-03T02:11:10;2.10;;;0.90;;
53453;SDS011;49404;50.472;6.954;2022-08-03T02:13:36;2.22;;;1.20;;
53453;SDS011;49404;50.472;6.954;2022-08-03T02:16:09;9.70;;;1.10;;
53453;SDS011;49404;50.472;6.954;2022-08-03T02:18:36;2.47;;;1.00;;
53453;SDS011;49404;50.472;6.954;2022-08-03T02:21:09;3.47;;;1.17;;
53453;SDS011;49404;50.472;6.954;2022-08-03T02:23:37;2.40;;;1.02;;
53453;SDS011;49404;50.472;6.954;2022-08-03T02:26:11;1.20;;;0.95;;
53453;SDS011;49404;50.472;6.954;2022-08-03T02:28:44;2.40;;;1.20;;
53453;SDS011;49404;50.472;6.954;2022-08-03T02:31:15;2.47;;;1.10;;
53453;SDS011;49404;50.472;6.954;2022-08-03T02:33:47;1.65;;;0.95;;
53453;SDS011;49404;50.472;6.954;2022-08-03T02:36:14;1.95;;;1.10;;
53453;SDS011;49404;50.472;6.954;2022-08-03T02:38:51;3.63;;;1.20;;
53453;SDS011;49404;50.472;6.954;2022-08-03T02:41:23;1.20;;;1.00;;
53453;SDS011;49404;50.472;6.954;2022-08-03T02:43:57;5.25;;;1.08;;
53453;SDS011;49404;50.472;6.954;2022-08-03T02:46:32;1.63;;;1.10;;
53453;SDS011;49404;50.472;6.954;2022-08-03T02:49:06;2.33;;;1.10;;
53453;SDS011;49404;50.472;6.954;2022-08-03T02:51:35;1.50;;;1.13;;
53453;SDS011;49404;50.472;6.954;2022-08-03T02:54:07;2.88;;;1.13;;
53453;SDS011;49404;50.472;6.954;2022-08-03T02:56:34;2.63;;;1.10;;
53453;SDS011;49404;50.472;6.954;2022-08-03T02:59:02;1.73;;;1.30;;
53453;SDS011;49404;50.472;6.954;2022-08-03T03:01:31;1.73;;;1.20;;
53453;SDS011;49404;50.472;6.954;2022-08-03T03:03:57;1.13;;;1.02;;
53453;SDS011;49404;50.472;6.954;2022-08-03T03:06:25;2.53;;;1.10;;
53453;SDS011;49404;50.472;6.954;2022-08-03T03:08:57;2.38;;;1.30;;
53453;SDS011;49404;50.472;6.954;2022-08-03T03:11:31;2.83;;;1.13;;
53453;SDS011;49404;50.472;6.954;2022-08-03T03:14:08;2.83;;;1.50;;
53453;SDS011;49404;50.472;6.954;2022-08-03T03:16:37;1.35;;;1.20;;
53453;SDS011;49404;50.472;6.954;2022-08-03T03:19:07;2.25;;;1.20;;
53453;SDS011;49404;50.472;6.954;2022-08-03T03:21:34;2.38;;;1.00;;
53453;SDS011;49404;50.472;6.954;2022-08-03T03:24:06;1.30;;;1.20;;
53453;SDS011;49404;50.472;6.954;2022-08-03T03:26:32;2.15;;;1.40;;
53453;SDS011;49404;50.472;6.954;2022-08-03T03:29:00;4.85;;;1.23;;
53453;SDS011;49404;50.472;6.954;2022-08-03T03:31:33;1.83;;;1.17;;
53453;SDS011;49404;50.472;6.954;2022-08-03T03:33:59;1.95;;;1.20;;
53453;SDS011;49404;50.472;6.954;2022-08-03T03:36:25;3.72;;;1.30;;
53453;SDS011;49404;50.472;6.954;2022-08-03T03:38:54;1.42;;;1.20;;
53453;SDS011;49404;50.472;6.954;2022-08-03T03:41:20;3.92;;;1.30;;
53453;SDS011;49404;50.472;6.954;2022-08-03T03:43:47;2.28;;;1.30;;
53453;SDS011;49404;50.472;6.954;2022-08-03T03:46:19;1.70;;;1.38;;
53453;SDS011;49404;50.472;6.954;2022-08-03T03:48:45;1.42;;;1.30;;
53453;SDS011;49404;50.472;6.954;2022-08-03T03:51:10;2.45;;;1.30;;
53453;SDS011;49404;50.472;6.954;2022-08-03T03:53:37;2.55;;;1.38;;
53453;SDS011;49404;50.472;6.954;2022-08-03T03:56:07;1.95;;;1.40;;
53453;SDS011;49404;50.472;6.954;2022-08-03T03:58:33;2.97;;;1.45;;
53453;SDS011;49404;50.472;6.954;2022-08-03T04:00:59;2.80;;;1.58;;
53453;SDS011;49404;50.472;6.954;2022-08-03T04:03:33;1.90;;;1.40;;
53453;SDS011;49404;50.472;6.954;2022-08-03T04:05:59;2.30;;;1.50;;
53453;SDS011;49404;50.472;6.954;2022-08-03T04:08:46;3.00;;;1.40;;
53453;SDS011;49404;50.472;6.954;2022-08-03T04:11:33;2.10;;;1.20;;
53453;SDS011;49404;50.472;6.954;2022-08-03T04:14:31;3.53;;;1.55;;
53453;SDS011;49404;50.472;6.954;2022-08-03T04:17:02;2.53;;;1.45;;
53453;SDS011;49404;50.472;6.954;2022-08-03T04:19:38;2.50;;;1.50;;
53453;SDS011;49404;50.472;6.954;2022-08-03T04:22:13;1.67;;;1.30;;
53453;SDS011;49404;50.472;6.954;2022-08-03T04:24:59;2.50;;;1.30;;
53453;SDS011;49404;50.472;6.954;2022-08-03T04:27:33;2.25;;;1.20;;
53453;SDS011;49404;50.472;6.954;2022-08-03T04:30:03;3.90;;;1.40;;
53453;SDS011;49404;50.472;6.954;2022-08-03T04:32:35;2.30;;;1.40;;
53453;SDS011;49404;50.472;6.954;2022-08-03T04:35:02;4.85;;;1.40;;
53453;SDS011;49404;50.472;6.954;2022-08-03T04:40:12;2.25;;;1.40;;
53453;SDS011;49404;50.472;6.954;2022-08-03T04:42:39;2.00;;;1.33;;
53453;SDS011;49404;50.472;6.954;2022-08-03T04:45:11;2.67;;;1.40;;
53453;SDS011;49404;50.472;6.954;2022-08-03T04:47:38;2.63;;;1.33;;
53453;SDS011;49404;50.472;6.954;2022-08-03T04:50:10;2.38;;;1.42;;
53453;SDS011;49404;50.472;6.954;2022-08-03T04:52:37;1.88;;;1.20;;
53453;SDS011;49404;50.472;6.954;2022-08-03T04:55:03;2.58;;;1.23;;
53453;SDS011;49404;50.472;6.954;2022-08-03T04:57:32;3.35;;;1.33;;
53453;SDS011;49404;50.472;6.954;2022-08-03T04:59:58;2.33;;;1.40;;
53453;SDS011;49404;50.472;6.954;2022-08-03T05:02:24;1.60;;;1.25;;
53453;SDS011;49404;50.472;6.954;2022-08-03T05:04:49;2.13;;;1.25;;
53453;SDS011;49404;50.472;6.954;2022-08-03T05:07:19;2.28;;;1.23;;
53453;SDS011;49404;50.472;6.954;2022-08-03T05:09:45;1.80;;;1.13;;
53453;SDS011;49404;50.472;6.954;2022-08-03T05:12:10;1.70;;;1.10;;
53453;SDS011;49404;50.472;6.954;2022-08-03T05:14:36;2.42;;;1.15;;
53453;SDS011;49404;50.472;6.954;2022-08-03T05:17:07;1.77;;;1.10;;
53453;SDS011;49404;50.472;6.954;2022-08-03T05:19:35;1.20;;;0.98;;
53453;SDS011;49404;50.472;6.954;2022-08-03T05:22:01;3.20;;;1.10;;
53453;SDS011;49404;50.472;6.954;2022-08-03T05:24:27;1.90;;;1.00;;
53453;SDS011;49404;50.472;6.954;2022-08-03T05:26:56;3.35;;;1.23;;
53453;SDS011;49404;50.472;6.954;2022-08-03T05:29:24;3.33;;;1.40;;
53453;SDS011;49404;50.472;6.954;2022-08-03T05:31:49;2.38;;;1.10;;
53453;SDS011;49404;50.472;6.954;2022-08-03T05:34:15;1.90;;;1.13;;
53453;SDS011;49404;50.472;6.954;2022-08-03T05:36:47;2.50;;;1.10;;
53453;SDS011;49404;50.472;6.954;2022-08-03T05:39:15;1.87;;;1.10;;
53453;SDS011;49404;50.472;6.954;2022-08-03T05:41:43;2.45;;;1.20;;
53453;SDS011;49404;50.472;6.954;2022-08-03T05:44:09;2.85;;;1.20;;
53453;SDS011;49404;50.472;6.954;2022-08-03T05:46:34;1.20;;;1.00;;
53453;SDS011;49404;50.472;6.954;2022-08-03T05:49:06;5.65;;;1.15;;
53453;SDS011;49404;50.472;6.954;2022-08-03T05:51:32;2.28;;;0.93;;
53453;SDS011;49404;50.472;6.954;2022-08-03T05:54:05;1.60;;;1.00;;
53453;SDS011;49404;50.472;6.954;2022-08-03T05:56:30;1.83;;;0.90;;
53453;SDS011;49404;50.472;6.954;2022-08-03T05:59:04;1.42;;;0.90;;
53453;SDS011;49404;50.472;6.954;2022-08-03T06:01:32;1.80;;;1.10;;
53453;SDS011;49404;50.472;6.954;2022-08-03T06:04:03;2.65;;;1.00;;
53453;SDS011;49404;50.472;6.954;2022-08-03T06:06:29;1.00;;;0.90;;
53453;SDS011;49404;50.472;6.954;2022-08-03T06:08:57;8.27;;;1.00;;
53453;SDS011;49404;50.472;6.954;2022-08-03T06:11:26;1.42;;;0.90;;
53453;SDS011;49404;50.472;6.954;2022-08-03T06:13:52;2.13;;;1.10;;
53453;SDS011;49404;50.472;6.954;2022-08-03T06:16:22;3.28;;;0.90;;
53453;SDS011;49404;50.472;6.954;2022-08-03T06:18:50;2.17;;;1.08;;
53453;SDS011;49404;50.472;6.954;2022-08-03T06:21:15;3.03;;;1.17;;
53453;SDS011;49404;50.472;6.954;2022-08-03T06:23:41;6.38;;;1.00;;
53453;SDS011;49404;50.472;6.954;2022-08-03T06:26:10;1.95;;;1.00;;
53453;SDS011;49404;50.472;6.954;2022-08-03T06:28:39;2.58;;;0.90;;
53453;SDS011;49404;50.472;6.954;2022-08-03T06:31:07;1.25;;;1.00;;
53453;SDS011;49404;50.472;6.954;2022-08-03T06:33:33;2.88;;;0.90;;
53453;SDS011;49404;50.472;6.954;2022-08-03T06:35:58;1.35;;;0.90;;
53453;SDS011;49404;50.472;6.954;2022-08-03T06:38:27;4.65;;;0.95;;
53453;SDS011;49404;50.472;6.954;2022-08-03T06:40:55;2.20;;;0.90;;
53453;SDS011;49404;50.472;6.954;2022-08-03T06:43:21;2.67;;;0.98;;
53453;SDS011;49404;50.472;6.954;2022-08-03T06:45:47;3.10;;;0.90;;
53453;SDS011;49404;50.472;6.954;2022-08-03T06:48:18;1.23;;;0.80;;
53453;SDS011;49404;50.472;6.954;2022-08-03T06:50:44;1.17;;;0.80;;
53453;SDS011;49404;50.472;6.954;2022-08-03T06:53:09;2.17;;;0.90;;
53453;SDS011;49404;50.472;6.954;2022-08-03T06:55:35;1.63;;;0.82;;
53453;SDS011;49404;50.472;6.954;2022-08-03T07:00:35;1.85;;;0.93;;
53453;SDS011;49404;50.472;6.954;2022-08-03T07:03:03;6.15;;;1.00;;
53453;SDS011;49404;50.472;6.954;2022-08-03T07:05:31;2.05;;;0.80;;
53453;SDS011;49404;50.472;6.954;2022-08-03T07:07:59;2.10;;;0.90;;
53453;SDS011;49404;50.472;6.954;2022-08-03T07:10:28;2.00;;;0.90;;
53453;SDS011;49404;50.472;6.954;2022-08-03T07:12:54;1.67;;;0.90;;
53453;SDS011;49404;50.472;6.954;2022-08-03T07:15:20;2.90;;;1.10;;
53453;SDS011;49404;50.472;6.954;2022-08-03T07:17:45;4.65;;;1.00;;
53453;SDS011;49404;50.472;6.954;2022-08-03T07:20:19;3.03;;;1.05;;
53453;SDS011;49404;50.472;6.954;2022-08-03T07:22:44;3.40;;;0.90;;
53453;SDS011;49404;50.472;6.954;2022-08-03T07:25:10;1.35;;;0.85;;
53453;SDS011;49404;50.472;6.954;2022-08-03T07:27:39;1.95;;;0.90;;
53453;SDS011;49404;50.472;6.954;2022-08-03T07:30:08;2.97;;;1.00;;
53453;SDS011;49404;50.472;6.954;2022-08-03T07:32:34;1.73;;;0.93;;
53453;SDS011;49404;50.472;6.954;2022-08-03T07:35:04;2.42;;;1.00;;
53453;SDS011;49404;50.472;6.954;2022-08-03T07:37:30;1.20;;;0.80;;
53453;SDS011;49404;50.472;6.954;2022-08-03T07:39:57;1.80;;;0.80;;
53453;SDS011;49404;50.472;6.954;2022-08-03T07:42:23;2.72;;;0.98;;
53453;SDS011;49404;50.472;6.954;2022-08-03T07:44:56;1.77;;;0.90;;
53453;SDS011;49404;50.472;6.954;2022-08-03T07:47:29;2.50;;;0.98;;
53453;SDS011;49404;50.472;6.954;2022-08-03T07:49:58;2.88;;;1.10;;
53453;SDS011;49404;50.472;6.954;2022-08-03T07:52:28;2.55;;;1.00;;
53453;SDS011;49404;50.472;6.954;2022-08-03T07:55:12;4.88;;;1.15;;
53453;SDS011;49404;50.472;6.954;2022-08-03T07:57:40;3.28;;;0.90;;
53453;SDS011;49404;50.472;6.954;2022-08-03T08:00:11;1.92;;;1.00;;
53453;SDS011;49404;50.472;6.954;2022-08-03T08:02:42;1.98;;;1.00;;
53453;SDS011;49404;50.472;6.954;2022-08-03T08:05:08;2.10;;;0.90;;
53453;SDS011;49404;50.472;6.954;2022-08-03T08:07:35;4.53;;;1.02;;
53453;SDS011;49404;50.472;6.954;2022-08-03T08:10:08;1.98;;;1.40;;
53453;SDS011;49404;50.472;6.954;2022-08-03T08:12:35;2.53;;;0.80;;
53453;SDS011;49404;50.472;6.954;2022-08-03T08:15:05;3.80;;;0.90;;
53453;SDS011;49404;50.472;6.954;2022-08-03T08:17:39;4.72;;;1.08;;
53453;SDS011;49404;50.472;6.954;2022-08-03T08:20:10;2.22;;;0.90;;
53453;SDS011;49404;50.472;6.954;2022-08-03T08:22:44;1.80;;;0.90;;
53453;SDS011;49404;50.472;6.954;2022-08-03T08:25:17;2.58;;;2.20;;
53453;SDS011;49404;50.472;6.954;2022-08-03T08:27:46;2.55;;;1.20;;
53453;SDS011;49404;50.472;6.954;2022-08-03T08:30:22;3.75;;;1.00;;
53453;SDS011;49404;50.472;6.954;2022-08-03T08:32:49;4.20;;;1.30;;
53453;SDS011;49404;50.472;6.954;2022-08-03T08:35:22;1.67;;;0.98;;
53453;SDS011;49404;50.472;6.954;2022-08-03T08:37:48;2.30;;;1.20;;
53453;SDS011;49404;50.472;6.954;2022-08-03T08:40:20;1.92;;;1.45;;
53453;SDS011;49404;50.472;6.954;2022-08-03T08:42:46;1.08;;;0.90;;
53453;SDS011;49404;50.472;6.954;2022-08-03T08:45:17;2.58;;;0.70;;
53453;SDS011;49404;50.472;6.954;2022-08-03T08:47:45;1.98;;;0.80;;
53453;SDS011;49404;50.472;6.954;2022-08-03T08:50:20;1.85;;;1.20;;
53453;SDS011;49404;50.472;6.954;2022-08-03T08:52:47;2.47;;;0.80;;
53453;SDS011;49404;50.472;6.954;2022-08-03T08:55:14;3.10;;;1.10;;
53453;SDS011;49404;50.472;6.954;2022-08-03T09:00:34;2.38;;;1.20;;
53453;SDS011;49404;50.472;6.954;2022-08-03T09:02:59;2.55;;;1.02;;
53453;SDS011;49404;50.472;6.954;2022-08-03T09:05:25;3.67;;;1.20;;
53453;SDS011;49404;50.472;6.954;2022-08-03T09:07:59;3.15;;;1.05;;
53453;SDS011;49404;50.472;6.954;2022-08-03T09:10:25;5.30;;;1.13;;
53453;SDS011;49404;50.472;6.954;2022-08-03T09:12:54;4.20;;;0.80;;
53453;SDS011;49404;50.472;6.954;2022-08-03T09:15:21;2.72;;;0.88;;
53453;SDS011;49404;50.472;6.954;2022-08-03T09:17:57;3.17;;;0.80;;
53453;SDS011;49404;50.472;6.954;2022-08-03T09:20:25;1.40;;;1.00;;
53453;SDS011;49404;50.472;6.954;2022-08-03T09:25:31;2.50;;;1.00;;
53453;SDS011;49404;50.472;6.954;2022-08-03T09:30:45;2.88;;;1.00;;
53453;SDS011;49404;50.472;6.954;2022-08-03T09:33:23;1.95;;;0.80;;
53453;SDS011;49404;50.472;6.954;2022-08-03T09:35:49;2.95;;;0.90;;
53453;SDS011;49404;50.472;6.954;2022-08-03T09:38:24;3.42;;;0.90;;
53453;SDS011;49404;50.472;6.954;2022-08-03T09:40:55;3.25;;;0.90;;
53453;SDS011;49404;50.472;6.954;2022-08-03T09:43:21;2.92;;;0.90;;
53453;SDS011;49404;50.472;6.954;2022-08-03T09:45:48;2.33;;;0.80;;
53453;SDS011;49404;50.472;6.954;2022-08-03T09:50:58;2.67;;;0.80;;
53453;SDS011;49404;50.472;6.954;2022-08-03T09:53:24;1.95;;;0.88;;
53453;SDS011;49404;50.472;6.954;2022-08-03T09:58:25;2.17;;;0.90;;
53453;SDS011;49404;50.472;6.954;2022-08-03T10:00:59;3.50;;;0.90;;
53453;SDS011;49404;50.472;6.954;2022-08-03T10:03:31;1.33;;;1.00;;
53453;SDS011;49404;50.472;6.954;2022-08-03T10:06:19;2.47;;;1.40;;
53453;SDS011;49404;50.472;6.954;2022-08-03T10:08:46;2.20;;;0.88;;
53453;SDS011;49404;50.472;6.954;2022-08-03T10:11:33;3.15;;;0.98;;
53453;SDS011;49404;50.472;6.954;2022-08-03T10:14:06;13.32;;;1.83;;
53453;SDS011;49404;50.472;6.954;2022-08-03T10:16:43;2.92;;;0.90;;
53453;SDS011;49404;50.472;6.954;2022-08-03T10:19:12;2.42;;;1.00;;
53453;SDS011;49404;50.472;6.954;2022-08-03T10:21:46;3.38;;;1.02;;
53453;SDS011;49404;50.472;6.954;2022-08-03T10:24:25;3.67;;;1.15;;
53453;SDS011;49404;50.472;6.954;2022-08-03T10:27:03;4.88;;;0.98;;
53453;SDS011;49404;50.472;6.954;2022-08-03T10:29:38;2.88;;;0.90;;
53453;SDS011;49404;50.472;6.954;2022-08-03T10:32:11;4.32;;;0.90;;
53453;SDS011;49404;50.472;6.954;2022-08-03T10:34:43;1.77;;;0.70;;
53453;SDS011;49404;50.472;6.954;2022-08-03T10:37:11;3.33;;;0.90;;
53453;SDS011;49404;50.472;6.954;2022-08-03T10:39:44;2.70;;;0.90;;
53453;SDS011;49404;50.472;6.954;2022-08-03T10:42:20;1.77;;;0.85;;
53453;SDS011;49404;50.472;6.954;2022-08-03T10:44:49;3.15;;;0.80;;
53453;SDS011;49404;50.472;6.954;2022-08-03T10:47:24;3.92;;;0.82;;
53453;SDS011;49404;50.472;6.954;2022-08-03T10:49:50;1.50;;;0.70;;
53453;SDS011;49404;50.472;6.954;2022-08-03T10:52:20;6.60;;;0.80;;
53453;SDS011;49404;50.472;6.954;2022-08-03T10:54:45;1.45;;;0.80;;
53453;SDS011;49404;50.472;6.954;2022-08-03T11:00:23;2.40;;;1.20;;
53453;SDS011;49404;50.472;6.954;2022-08-03T11:03:02;1.88;;;0.82;;
53453;SDS011;49404;50.472;6.954;2022-08-03T11:05:37;1.48;;;0.80;;
53453;SDS011;49404;50.472;6.954;2022-08-03T11:10:45;2.15;;;0.80;;
53453;SDS011;49404;50.472;6.954;2022-08-03T11:13:14;3.67;;;0.80;;
53453;SDS011;49404;50.472;6.954;2022-08-03T11:15:50;9.23;;;0.85;;
53453;SDS011;49404;50.472;6.954;2022-08-03T11:18:21;1.98;;;0.70;;
53453;SDS011;49404;50.472;6.954;2022-08-03T11:20:57;1.48;;;0.80;;
53453;SDS011;49404;50.472;6.954;2022-08-03T11:28:46;2.47;;;0.70;;
53453;SDS011;49404;50.472;6.954;2022-08-03T11:39:45;2.15;;;0.80;;
53453;SDS011;49404;50.472;6.954;2022-08-03T11:44:50;1.95;;;0.80;;
53453;SDS011;49404;50.472;6.954;2022-08-03T11:47:24;1.38;;;0.73;;
53453;SDS011;49404;50.472;6.954;2022-08-03T11:52:23;1.77;;;0.80;;
53453;SDS011;49404;50.472;6.954;2022-08-03T11:54:49;2.75;;;0.77;;
53453;SDS011;49404;50.472;6.954;2022-08-03T11:57:32;3.00;;;0.80;;
53453;SDS011;49404;50.472;6.954;2022-08-03T11:59:59;3.13;;;0.77;;
53453;SDS011;49404;50.472;6.954;2022-08-03T12:02:36;2.60;;;0.75;;
53453;SDS011;49404;50.472;6.954;2022-08-03T12:05:02;2.63;;;0.70;;
53453;SDS011;49404;50.472;6.954;2022-08-03T12:07:29;1.48;;;0.88;;
53453;SDS011;49404;50.472;6.954;2022-08-03T12:10:10;1.98;;;0.70;;
53453;SDS011;49404;50.472;6.954;2022-08-03T12:12:39;2.40;;;0.80;;
53453;SDS011;49404;50.472;6.954;2022-08-03T12:15:11;2.83;;;0.90;;
53453;SDS011;49404;50.472;6.954;2022-08-03T12:17:38;3.20;;;1.00;;
53453;SDS011;49404;50.472;6.954;2022-08-03T12:20:08;1.92;;;0.80;;
53453;SDS011;49404;50.472;6.954;2022-08-03T12:22:44;1.67;;;0.80;;
53453;SDS011;49404;50.472;6.954;2022-08-03T12:25:14;2.55;;;0.70;;
53453;SDS011;49404;50.472;6.954;2022-08-03T12:28:05;1.38;;;0.80;;
53453;SDS011;49404;50.472;6.954;2022-08-03T12:30:46;2.35;;;0.80;;
53453;SDS011;49404;50.472;6.954;2022-08-03T12:36:01;2.90;;;0.80;;
53453;SDS011;49404;50.472;6.954;2022-08-03T12:38:33;1.92;;;0.82;;
53453;SDS011;49404;50.472;6.954;2022-08-03T12:41:02;2.95;;;0.80;;
53453;SDS011;49404;50.472;6.954;2022-08-03T12:43:46;4.05;;;0.88;;
53453;SDS011;49404;50.472;6.954;2022-08-03T12:46:28;2.13;;;0.70;;
53453;SDS011;49404;50.472;6.954;2022-08-03T12:49:02;2.10;;;0.98;;
53453;SDS011;49404;50.472;6.954;2022-08-03T12:52:06;2.38;;;0.80;;
53453;SDS011;49404;50.472;6.954;2022-08-03T12:54:33;4.05;;;1.10;;
53453;SDS011;49404;50.472;6.954;2022-08-03T12:57:03;3.60;;;0.90;;
53453;SDS011;49404;50.472;6.954;2022-08-03T12:59:36;2.85;;;0.70;;
53453;SDS011;49404;50.472;6.954;2022-08-03T13:02:20;2.08;;;0.60;;
53453;SDS011;49404;50.472;6.954;2022-08-03T13:07:15;1.38;;;0.60;;
53453;SDS011;49404;50.472;6.954;2022-08-03T13:12:26;8.07;;;0.90;;
53453;SDS011;49404;50.472;6.954;2022-08-03T13:14:57;2.00;;;0.75;;
53453;SDS011;49404;50.472;6.954;2022-08-03T13:17:24;2.30;;;1.10;;
53453;SDS011;49404;50.472;6.954;2022-08-03T13:20:00;1.75;;;0.77;;
53453;SDS011;49404;50.472;6.954;2022-08-03T13:22:32;3.03;;;0.80;;
53453;SDS011;49404;50.472;6.954;2022-08-03T13:25:01;2.80;;;0.63;;
53453;SDS011;49404;50.472;6.954;2022-08-03T13:27:34;1.95;;;0.80;;
53453;SDS011;49404;50.472;6.954;2022-08-03T13:29:59;1.77;;;0.70;;
53453;SDS011;49404;50.472;6.954;2022-08-03T13:32:30;1.38;;;0.80;;
53453;SDS011;49404;50.472;6.954;2022-08-03T13:34:59;2.80;;;0.70;;
53453;SDS011;49404;50.472;6.954;2022-08-03T13:37:26;1.23;;;0.60;;
53453;SDS011;49404;50.472;6.954;2022-08-03T13:39:59;2.05;;;0.80;;
53453;SDS011;49404;50.472;6.954;2022-08-03T13:42:34;1.25;;;0.90;;
53453;SDS011;49404;50.472;6.954;2022-08-03T13:45:00;2.35;;;0.70;;
53453;SDS011;49404;50.472;6.954;2022-08-03T13:47:31;2.92;;;0.80;;
53453;SDS011;49404;50.472;6.954;2022-08-03T13:49:56;3.22;;;0.80;;
53453;SDS011;49404;50.472;6.954;2022-08-03T13:52:22;5.78;;;0.98;;
53453;SDS011;49404;50.472;6.954;2022-08-03T13:54:48;1.63;;;0.70;;
53453;SDS011;49404;50.472;6.954;2022-08-03T13:57:21;3.00;;;1.05;;
53453;SDS011;49404;50.472;6.954;2022-08-03T13:59:49;1.35;;;0.82;;
53453;SDS011;49404;50.472;6.954;2022-08-03T14:02:15;7.07;;;0.90;;
53453;SDS011;49404;50.472;6.954;2022-08-03T14:04:43;4.38;;;0.90;;
53453;SDS011;49404;50.472;6.954;2022-08-03T14:07:09;1.92;;;0.70;;
53453;SDS011;49404;50.472;6.954;2022-08-03T14:09:38;1.20;;;0.68;;
53453;SDS011;49404;50.472;6.954;2022-08-03T14:12:10;3.95;;;0.90;;
53453;SDS011;49404;50.472;6.954;2022-08-03T14:14:36;2.40;;;0.70;;
53453;SDS011;49404;50.472;6.954;2022-08-03T14:17:01;2.35;;;0.70;;
53453;SDS011;49404;50.472;6.954;2022-08-03T14:19:35;2.75;;;0.93;;
53453;SDS011;49404;50.472;6.954;2022-08-03T14:22:00;3.42;;;0.70;;
53453;SDS011;49404;50.472;6.954;2022-08-03T14:24:27;1.45;;;0.75;;
53453;SDS011;49404;50.472;6.954;2022-08-03T14:26:59;2.17;;;0.75;;
53453;SDS011;49404;50.472;6.954;2022-08-03T14:29:24;2.22;;;0.75;;
53453;SDS011;49404;50.472;6.954;2022-08-03T14:31:50;4.05;;;1.23;;
53453;SDS011;49404;50.472;6.954;2022-08-03T14:34:15;2.75;;;1.13;;
53453;SDS011;49404;50.472;6.954;2022-08-03T14:36:45;6.72;;;1.45;;
53453;SDS011;49404;50.472;6.954;2022-08-03T14:39:13;3.30;;;1.27;;
53453;SDS011;49404;50.472;6.954;2022-08-03T14:41:46;2.55;;;0.80;;
53453;SDS011;49404;50.472;6.954;2022-08-03T14:44:12;2.25;;;0.70;;
53453;SDS011;49404;50.472;6.954;2022-08-03T14:46:38;2.15;;;0.70;;
53453;SDS011;49404;50.472;6.954;2022-08-03T14:49:04;1.95;;;0.80;;
53453;SDS011;49404;50.472;6.954;2022-08-03T14:51:33;1.58;;;0.60;;
53453;SDS011;49404;50.472;6.954;2022-08-03T14:53:59;2.72;;;0.80;;
53453;SDS011;49404;50.472;6.954;2022-08-03T14:56:24;1.67;;;0.80;;
53453;SDS011;49404;50.472;6.954;2022-08-03T14:58:50;1.70;;;0.70;;
53453;SDS011;49404;50.472;6.954;2022-08-03T15:01:15;2.33;;;1.20;;
53453;SDS011;49404;50.472;6.954;2022-08-03T15:03:47;2.28;;;0.80;;
53453;SDS011;49404;50.472;6.954;2022-08-03T15:06:13;2.45;;;1.00;;
53453;SDS011;49404;50.472;6.954;2022-08-03T15:08:38;5.28;;;0.80;;
53453;SDS011;49404;50.472;6.954;2022-08-03T15:11:04;3.20;;;0.70;;
53453;SDS011;49404;50.472;6.954;2022-08-03T15:13:34;3.42;;;0.85;;
53453;SDS011;49404;50.472;6.954;2022-08-03T15:15:59;1.42;;;1.00;;
53453;SDS011;49404;50.472;6.954;2022-08-03T15:18:25;2.25;;;0.60;;
53453;SDS011;49404;50.472;6.954;2022-08-03T15:20:51;2.25;;;0.90;;
53453;SDS011;49404;50.472;6.954;2022-08-03T15:23:17;1.42;;;0.80;;
53453;SDS011;49404;50.472;6.954;2022-08-03T15:25:45;2.22;;;0.80;;
53453;SDS011;49404;50.472;6.954;2022-08-03T15:28:12;1.98;;;0.70;;
53453;SDS011;49404;50.472;6.954;2022-08-03T15:30:37;3.38;;;1.20;;
53453;SDS011;49404;50.472;6.954;2022-08-03T15:33:03;2.45;;;0.80;;
53453;SDS011;49404;50.472;6.954;2022-08-03T15:35:37;2.25;;;1.00;;
53453;SDS011;49404;50.472;6.954;2022-08-03T15:38:02;1.58;;;0.95;;
53453;SDS011;49404;50.472;6.954;2022-08-03T15:40:28;1.10;;;0.70;;
53453;SDS011;49404;50.472;6.954;2022-08-03T15:42:54;1.25;;;0.70;;
53453;SDS011;49404;50.472;6.954;2022-08-03T15:45:20;1.67;;;0.65;;
53453;SDS011;49404;50.472;6.954;2022-08-03T15:47:54;2.45;;;0.70;;
53453;SDS011;49404;50.472;6.954;2022-08-03T15:50:20;2.88;;;0.70;;
53453;SDS011;49404;50.472;6.954;2022-08-03T15:52:46;2.95;;;0.68;;
53453;SDS011;49404;50.472;6.954;2022-08-03T15:55:19;1.50;;;0.65;;
53453;SDS011;49404;50.472;6.954;2022-08-03T15:57:44;2.72;;;0.80;;
53453;SDS011;49404;50.472;6.954;2022-08-03T16:00:10;2.70;;;0.70;;
53453;SDS011;49404;50.472;6.954;2022-08-03T16:02:39;1.35;;;0.70;;
53453;SDS011;49404;50.472;6.954;2022-08-03T16:05:04;2.65;;;0.80;;
53453;SDS011;49404;50.472;6.954;2022-08-03T16:07:30;3.47;;;0.80;;
53453;SDS011;49404;50.472;6.954;2022-08-03T16:10:16;2.15;;;0.68;;
53453;SDS011;49404;50.472;6.954;2022-08-03T16:12:45;1.92;;;0.80;;